Time;durP1;ratioP1;P1;durP2;ratioP2;P2;SDS_P1;SDS_P2;PMS_P1;PMS_P2;Temp;Humidity;BMP_temperature;BMP_pressure;BME280_temperature;BME280_humidity;BME280_pressure;Samples;Min_cycle;Max_cycle;Signal;HPM_P1;HPM_P2
2022/06/16 00:01:44;;;;;;;11.23;4.65;;;410.50;2355.20;;;;;;5079686;28;20460;-75
2022/06/16 00:04:10;;;;;;;8.48;5.20;;;410.50;2355.20;;;;;;5075909;28;20360;-75
2022/06/16 00:06:36;;;;;;;8.70;5.72;;;410.30;2355.20;;;;;;5074250;28;20039;-74
2022/06/16 00:09:02;;;;;;;10.88;6.18;;;410.30;2355.20;;;;;;5075355;28;20048;-75
2022/06/16 00:11:28;;;;;;;11.50;7.57;;;410.30;2355.20;;;;;;5074297;28;20060;-76
2022/06/16 00:13:53;;;;;;;12.60;4.30;;;410.10;2355.20;;;;;;5073865;28;20064;-74
2022/06/16 00:16:20;;;;;;;7.18;4.72;;;409.90;2355.20;;;;;;5075485;28;20032;-74
2022/06/16 00:18:46;;;;;;;6.43;4.47;;;409.80;2355.20;;;;;;5074008;28;20063;-74
2022/06/16 00:21:12;;;;;;;7.53;4.57;;;409.70;2355.20;;;;;;5080535;28;20028;-74
2022/06/16 00:23:39;;;;;;;12.40;5.97;;;409.70;2355.20;;;;;;5088778;28;20101;-75
2022/06/16 00:26:15;;;;;;;8.85;4.90;;;409.70;2355.20;;;;;;5075502;28;20021;-75
2022/06/16 00:28:42;;;;;;;11.75;5.13;;;409.80;2355.20;;;;;;5075006;28;20032;-75
2022/06/16 00:31:09;;;;;;;11.77;4.40;;;410.20;2355.20;;;;;;5075042;28;20053;-75
2022/06/16 00:33:35;;;;;;;10.85;4.20;;;410.30;2355.20;;;;;;5075077;28;20017;-74
2022/06/16 00:36:01;;;;;;;10.73;5.65;;;409.80;2355.20;;;;;;5074630;28;20368;-74
2022/06/16 00:38:27;;;;;;;13.18;5.47;;;409.80;2355.20;;;;;;5074714;28;20515;-75
2022/06/16 00:40:53;;;;;;;9.27;5.55;;;409.70;2355.20;;;;;;5074783;28;20078;-75
2022/06/16 00:43:19;;;;;;;8.40;4.72;;;409.60;2355.20;;;;;;5077068;28;20506;-75
2022/06/16 00:46:03;;;;;;;8.38;6.50;;;409.60;2355.20;;;;;;5083550;28;20056;-76
2022/06/16 00:48:49;;;;;;;7.13;4.53;;;409.60;2355.20;;;;;;5074730;28;20115;-76
2022/06/16 00:51:31;;;;;;;6.43;4.15;;;384.70;2329.60;;;;;;5074669;28;20024;-76
2022/06/16 00:54:13;;;;;;;9.65;4.97;;;384.60;2329.60;;;;;;5073377;28;20391;-75
2022/06/16 00:56:39;;;;;;;8.25;5.32;;;384.60;2329.60;;;;;;5060123;28;20387;-75
2022/06/16 00:59:07;;;;;;;9.98;5.50;;;384.50;2329.60;;;;;;5073316;28;20036;-74
2022/06/16 01:01:37;;;;;;;6.55;4.90;;;384.40;2329.60;;;;;;5073263;28;20020;-75
2022/06/16 01:06:47;;;;;;;7.55;5.03;;;384.70;2329.60;;;;;;5073115;28;20040;-75
2022/06/16 01:09:23;;;;;;;9.95;5.25;;;384.50;2329.60;;;;;;5074537;28;20025;-75
2022/06/16 01:15:04;;;;;;;;;;;384.30;2329.60;;;;;;5074194;28;20111;-75
2022/06/16 01:18:02;;;;;;;11.93;5.75;;;384.30;2329.60;;;;;;5071929;28;19997;-75
2022/06/16 01:20:46;;;;;;;9.95;5.45;;;384.30;2329.60;;;;;;5058843;28;20044;-75
2022/06/16 01:23:31;;;;;;;11.10;5.03;;;384.70;2329.60;;;;;;5093570;28;20051;-76
2022/06/16 01:26:02;;;;;;;7.90;5.47;;;384.60;2329.60;;;;;;5052865;28;20025;-75
2022/06/16 01:28:44;;;;;;;9.43;5.38;;;384.70;2329.60;;;;;;5098816;28;20032;-74
2022/06/16 01:31:14;;;;;;;8.75;5.57;;;384.80;2329.60;;;;;;5072702;28;20033;-74
2022/06/16 01:33:54;;;;;;;9.02;5.60;;;384.80;2329.60;;;;;;5071867;28;20059;-75
2022/06/16 01:36:43;;;;;;;10.52;4.80;;;384.80;2329.60;;;;;;5062759;28;20053;-75
2022/06/16 01:39:18;;;;;;;9.73;5.20;;;409.70;2355.20;;;;;;5071846;28;20052;-75
2022/06/16 01:41:54;;;;;;;11.15;5.15;;;409.60;2355.20;;;;;;5073883;28;20020;-75
2022/06/16 01:44:19;;;;;;;8.23;4.60;;;384.90;2329.60;;;;;;5072446;28;20062;-75
2022/06/16 01:46:51;;;;;;;7.50;5.18;;;384.70;2329.60;;;;;;5072584;28;20025;-75
2022/06/16 01:49:24;;;;;;;5.93;4.68;;;384.70;2329.60;;;;;;5088085;28;20038;-75
2022/06/16 01:51:54;;;;;;;6.65;4.88;;;384.90;2329.60;;;;;;5073635;28;20487;-75
2022/06/16 01:54:34;;;;;;;8.27;4.38;;;384.70;2329.60;;;;;;5090261;28;20111;-75
2022/06/16 01:57:10;;;;;;;10.50;5.18;;;384.60;2329.60;;;;;;5093318;28;20062;-74
2022/06/16 01:59:51;;;;;;;8.30;4.75;;;384.50;2329.60;;;;;;5073612;28;20453;-74
2022/06/16 02:02:18;;;;;;;12.07;5.40;;;384.50;2329.60;;;;;;5073549;28;20035;-75
2022/06/16 02:04:49;;;;;;;7.57;5.55;;;384.40;2329.60;;;;;;5072015;28;20112;-75
2022/06/16 02:07:24;;;;;;;12.55;5.38;;;384.40;2329.60;;;;;;5071835;28;20066;-76
2022/06/16 02:09:54;;;;;;;6.38;5.20;;;384.30;2329.60;;;;;;5072654;28;20511;-75
2022/06/16 02:15:20;;;;;;;12.55;5.45;;;384.20;2329.60;;;;;;5060504;28;20039;-76
2022/06/16 02:17:46;;;;;;;8.52;5.43;;;384.30;2329.60;;;;;;5073106;28;20040;-75
2022/06/16 02:20:12;;;;;;;9.27;6.60;;;384.40;2329.60;;;;;;5084963;28;20067;-75
2022/06/16 02:22:37;;;;;;;11.07;6.43;;;384.60;2329.60;;;;;;5071647;28;20054;-75
2022/06/16 02:25:03;;;;;;;9.20;6.85;;;384.80;2329.60;;;;;;5089845;28;20025;-74
2022/06/16 02:27:29;;;;;;;8.75;4.95;;;384.80;2329.60;;;;;;5084262;28;20036;-75
2022/06/16 02:29:55;;;;;;;9.13;6.00;;;384.50;2329.60;;;;;;5076007;28;20024;-75
2022/06/16 02:32:45;;;;;;;10.07;5.30;;;384.70;2329.60;;;;;;5081717;28;20103;-74
2022/06/16 02:35:35;;;;;;;8.98;4.78;;;384.60;2329.60;;;;;;5083452;28;20132;-75
2022/06/16 02:38:16;;;;;;;8.75;5.03;;;384.80;2329.60;;;;;;5085501;28;20086;-75
2022/06/16 02:41:14;;;;;;;12.90;5.07;;;384.50;2329.60;;;;;;5082166;28;20020;-75
2022/06/16 02:44:01;;;;;;;11.40;6.00;;;384.40;2329.60;;;;;;5072506;28;20052;-75
2022/06/16 02:46:46;;;;;;;8.73;6.13;;;384.50;2329.60;;;;;;5071500;28;20075;-75
2022/06/16 02:49:34;;;;;;;20.08;11.95;;;384.70;2329.60;;;;;;5092813;28;20487;-75
2022/06/16 02:52:31;;;;;;;10.48;5.93;;;384.90;2329.60;;;;;;5086358;28;20024;-75
2022/06/16 02:55:10;;;;;;;9.20;5.50;;;384.70;2329.60;;;;;;5072350;28;20035;-76
2022/06/16 02:57:57;;;;;;;11.25;6.20;;;384.40;2329.60;;;;;;5072026;28;20105;-75
2022/06/16 03:00:28;;;;;;;9.70;5.32;;;384.30;2329.60;;;;;;5070799;28;20483;-75
2022/06/16 03:02:54;;;;;;;7.80;6.13;;;384.40;2329.60;;;;;;5082343;28;20098;-75
2022/06/16 03:05:20;;;;;;;9.73;7.10;;;384.20;2329.60;;;;;;5089909;28;20451;-74
2022/06/16 03:07:46;;;;;;;7.78;6.15;;;384.20;2329.60;;;;;;5070812;28;20118;-75
2022/06/16 03:10:14;;;;;;;11.70;6.18;;;384.10;2329.60;;;;;;5070475;28;20111;-75
2022/06/16 03:12:40;;;;;;;9.25;5.95;;;384.10;2329.60;;;;;;5072305;28;20075;-75
2022/06/16 03:15:06;;;;;;;9.55;7.13;;;384.20;2329.60;;;;;;5072329;28;20480;-75
2022/06/16 03:17:32;;;;;;;11.40;6.35;;;384.20;2329.60;;;;;;5070391;28;20487;-75
2022/06/16 03:19:58;;;;;;;11.65;7.00;;;384.10;2329.60;;;;;;5070674;28;20020;-76
2022/06/16 03:22:24;;;;;;;7.28;5.30;;;384.00;2329.60;;;;;;5071454;28;20131;-75
2022/06/16 03:24:50;;;;;;;11.05;6.30;;;359.20;2329.60;;;;;;5072096;28;20503;-75
2022/06/16 03:27:16;;;;;;;13.70;6.65;;;359.00;2329.60;;;;;;5071146;28;20399;-75
2022/06/16 03:29:42;;;;;;;9.98;6.60;;;359.00;2329.60;;;;;;5073738;28;20077;-75
2022/06/16 03:32:09;;;;;;;9.13;5.75;;;359.00;2329.60;;;;;;5085231;28;20412;-75
2022/06/16 03:34:34;;;;;;;9.73;6.30;;;358.90;2329.60;;;;;;5090039;28;20030;-76
2022/06/16 03:37:00;;;;;;;17.88;7.13;;;358.80;2329.60;;;;;;5083627;28;20119;-76
2022/06/16 03:39:26;;;;;;;15.82;8.75;;;359.10;2329.60;;;;;;5070831;28;20467;-76
2022/06/16 03:41:52;;;;;;;14.27;8.57;;;384.10;2329.60;;;;;;5072120;28;20020;-75
2022/06/16 03:44:18;;;;;;;16.10;8.80;;;384.10;2329.60;;;;;;5083278;28;20058;-76
2022/06/16 03:46:43;;;;;;;13.35;8.27;;;384.20;2329.60;;;;;;5074635;28;20025;-76
2022/06/16 03:49:09;;;;;;;11.85;7.28;;;384.40;2329.60;;;;;;5072930;28;20526;-76
2022/06/16 03:51:35;;;;;;;17.77;10.65;;;384.60;2329.60;;;;;;5071985;28;20074;-75
2022/06/16 03:54:01;;;;;;;12.98;7.05;;;384.70;2329.60;;;;;;5071853;28;20403;-75
2022/06/16 03:56:27;;;;;;;10.35;6.85;;;384.90;2329.60;;;;;;5070519;28;20028;-74
2022/06/16 03:58:54;;;;;;;14.98;8.15;;;409.80;2355.20;;;;;;5070463;28;20025;-75
2022/06/16 04:01:20;;;;;;;15.25;7.95;;;409.70;2355.20;;;;;;5090770;28;20048;-75
2022/06/16 04:04:01;;;;;;;10.90;7.15;;;409.90;2355.20;;;;;;5080472;28;20016;-75
2022/06/16 04:06:33;;;;;;;15.45;9.25;;;410.00;2355.20;;;;;;5076568;28;20058;-75
2022/06/16 04:09:00;;;;;;;10.93;7.38;;;409.90;2355.20;;;;;;5091811;28;20077;-75
2022/06/16 04:11:26;;;;;;;10.82;6.50;;;410.00;2355.20;;;;;;5083062;28;20034;-75
2022/06/16 04:14:07;;;;;;;10.52;6.65;;;409.90;2355.20;;;;;;5075798;28;20107;-75
2022/06/16 04:16:36;;;;;;;13.38;6.70;;;409.80;2355.20;;;;;;5081224;28;20032;-75
2022/06/16 04:19:02;;;;;;;13.00;6.90;;;409.90;2355.20;;;;;;5090312;28;20035;-74
2022/06/16 04:21:29;;;;;;;10.90;7.10;;;409.70;2355.20;;;;;;5076195;28;20049;-76
2022/06/16 04:23:55;;;;;;;13.23;7.90;;;384.90;2329.60;;;;;;5057762;28;20036;-75
2022/06/16 04:26:21;;;;;;;25.55;11.27;;;409.70;2355.20;;;;;;5078963;28;20017;-75
2022/06/16 04:28:48;;;;;;;22.95;11.27;;;410.00;2355.20;;;;;;5071170;28;20040;-75
2022/06/16 04:31:13;;;;;;;19.20;14.20;;;410.50;2355.20;;;;;;5077877;28;20108;-75
2022/06/16 04:33:39;;;;;;;15.70;9.55;;;435.40;2355.20;;;;;;5075175;28;20099;-77
2022/06/16 04:36:06;;;;;;;15.38;10.02;;;435.20;2355.20;;;;;;5071594;28;20514;-76
2022/06/16 04:38:31;;;;;;;15.05;10.05;;;435.40;2355.20;;;;;;5083513;28;20036;-77
2022/06/16 04:41:00;;;;;;;12.88;9.85;;;435.40;2355.20;;;;;;5079763;28;20032;-75
2022/06/16 04:43:26;;;;;;;16.55;11.80;;;435.50;2355.20;;;;;;5082205;28;20028;-75
2022/06/16 04:45:53;;;;;;;17.58;8.90;;;435.70;2355.20;;;;;;5089108;28;20055;-76
2022/06/16 04:48:19;;;;;;;11.95;7.38;;;435.60;2355.20;;;;;;5087771;28;20064;-76
2022/06/16 04:50:44;;;;;;;23.67;9.15;;;435.60;2355.20;;;;;;5085963;28;20071;-76
2022/06/16 04:53:10;;;;;;;23.73;15.93;;;435.70;2355.20;;;;;;5076949;28;20020;-75
2022/06/16 04:55:36;;;;;;;13.30;8.98;;;435.90;2355.20;;;;;;5085654;28;20402;-76
2022/06/16 04:58:02;;;;;;;17.02;10.35;;;435.90;2355.20;;;;;;5088682;28;20024;-75
2022/06/16 05:00:28;;;;;;;22.20;13.27;;;436.10;2355.20;;;;;;5083328;28;20028;-74
2022/06/16 05:02:54;;;;;;;23.40;12.30;;;460.80;2380.80;;;;;;5086460;28;20032;-76
2022/06/16 05:05:20;;;;;;;17.23;10.07;;;460.80;2380.80;;;;;;5082281;28;20035;-76
2022/06/16 05:07:46;;;;;;;19.88;10.27;;;436.10;2355.20;;;;;;5085213;28;20067;-77
2022/06/16 05:10:13;;;;;;;13.57;8.27;;;436.10;2355.20;;;;;;5083993;28;20052;-76
2022/06/16 05:12:39;;;;;;;20.98;11.13;;;460.90;2380.80;;;;;;5083753;28;20031;-75
2022/06/16 05:15:05;;;;;;;23.25;10.82;;;461.10;2380.80;;;;;;5071271;28;20028;-76
2022/06/16 05:17:31;;;;;;;19.55;10.48;;;461.30;2380.80;;;;;;5076534;28;20028;-75
2022/06/16 05:19:57;;;;;;;14.20;8.80;;;461.30;2380.80;;;;;;5076576;28;20508;-75
2022/06/16 05:22:24;;;;;;;18.58;9.30;;;461.40;2380.80;;;;;;5087355;28;20059;-77
2022/06/16 05:24:49;;;;;;;21.25;9.10;;;461.60;2380.80;;;;;;5082862;28;20028;-75
2022/06/16 05:27:16;;;;;;;18.05;8.38;;;461.60;2380.80;;;;;;5081578;28;20086;-75
2022/06/16 05:29:42;;;;;;;23.33;10.85;;;461.60;2380.80;;;;;;5087243;28;20036;-76
2022/06/16 05:32:09;;;;;;;18.20;10.20;;;486.40;2380.80;;;;;;5081405;28;20035;-77
2022/06/16 05:34:36;;;;;;;17.55;10.27;;;486.50;2380.80;;;;;;5088600;28;20032;-75
2022/06/16 05:37:02;;;;;;;11.98;8.13;;;486.50;2380.80;;;;;;5088266;28;20040;-75
2022/06/16 05:39:28;;;;;;;18.23;10.68;;;486.50;2380.80;;;;;;5084739;28;20060;-76
2022/06/16 05:41:54;;;;;;;10.35;7.45;;;486.60;2380.80;;;;;;5084499;28;20021;-76
2022/06/16 05:44:20;;;;;;;20.00;12.80;;;486.60;2380.80;;;;;;5084940;28;20423;-75
2022/06/16 05:46:45;;;;;;;14.75;11.70;;;486.70;2380.80;;;;;;5074846;28;20082;-76
2022/06/16 05:49:13;;;;;;;14.40;10.40;;;486.60;2380.80;;;;;;5088163;28;20032;-76
2022/06/16 05:51:39;;;;;;;18.17;12.02;;;486.70;2380.80;;;;;;5075115;28;20502;-75
2022/06/16 05:54:05;;;;;;;16.90;11.05;;;486.70;2380.80;;;;;;5073291;28;20025;-75
2022/06/16 05:56:31;;;;;;;17.80;11.15;;;486.80;2380.80;;;;;;5085970;28;20119;-77
2022/06/16 05:58:56;;;;;;;22.67;14.60;;;486.90;2380.80;;;;;;5079897;28;20178;-75
2022/06/16 06:01:22;;;;;;;13.57;9.52;;;486.90;2380.80;;;;;;5080236;28;20471;-76
2022/06/16 06:03:48;;;;;;;43.25;33.13;;;486.90;2380.80;;;;;;5087059;28;20035;-76
2022/06/16 06:06:14;;;;;;;16.58;10.90;;;486.90;2380.80;;;;;;5073246;28;20461;-78
2022/06/16 06:17:10;;;;;;;22.63;15.40;;;487.10;2380.80;;;;;;5072778;28;21808;-75
2022/06/16 06:19:36;;;;;;;38.97;28.67;;;486.90;2380.80;;;;;;5080877;28;20031;-76
2022/06/16 06:22:13;;;;;;;19.58;11.73;;;486.90;2380.80;;;;;;5077622;28;20021;-76
2022/06/16 06:24:47;;;;;;;20.10;13.40;;;486.70;2380.80;;;;;;5072962;28;20089;-77
2022/06/16 06:27:42;;;;;;;22.27;10.98;;;486.80;2380.80;;;;;;5077634;28;20032;-75
2022/06/16 06:30:10;;;;;;;22.25;10.30;;;487.10;2380.80;;;;;;5082282;28;20046;-75
2022/06/16 06:32:36;;;;;;;13.88;11.32;;;487.20;2380.80;;;;;;5092174;28;20101;-76
2022/06/16 06:35:02;;;;;;;20.15;12.32;;;512.00;2380.80;;;;;;5092663;28;20120;-76
2022/06/16 06:37:28;;;;;;;29.23;17.90;;;512.10;2380.80;;;;;;5084808;28;20119;-76
2022/06/16 06:39:54;;;;;;;19.40;13.25;;;512.30;2380.80;;;;;;5085893;28;20103;-77
2022/06/16 06:42:21;;;;;;;30.45;19.42;;;512.20;2380.80;;;;;;5087747;28;20028;-77
2022/06/16 06:44:47;;;;;;;21.02;9.70;;;512.30;2380.80;;;;;;5091453;28;20106;-77
2022/06/16 06:47:25;;;;;;;15.95;9.93;;;512.50;2380.80;;;;;;5078625;28;20109;-78
2022/06/16 06:49:50;;;;;;;22.50;12.52;;;512.70;2380.80;;;;;;5057377;28;20035;-77
2022/06/16 06:52:16;;;;;;;40.55;26.52;;;512.80;2329.60;;;;;;5080113;28;20048;-78
2022/06/16 06:54:45;;;;;;;82.78;65.97;;;512.50;2380.80;;;;;;5078387;28;20024;-76
2022/06/16 06:57:31;;;;;;;42.63;32.72;;;512.50;2380.80;;;;;;5070691;28;20035;-76
2022/06/16 06:59:57;;;;;;;17.75;11.00;;;512.80;2380.80;;;;;;5071848;28;20031;-76
2022/06/16 07:02:23;;;;;;;52.50;40.33;;;512.90;2380.80;;;;;;5071462;28;20025;-77
2022/06/16 07:04:49;;;;;;;14.27;8.32;;;537.70;2406.40;;;;;;5088294;28;20126;-76
2022/06/16 07:07:17;;;;;;;20.77;12.02;;;537.80;2380.80;;;;;;5070384;28;20069;-76
2022/06/16 07:09:43;;;;;;;26.35;17.10;;;537.90;2329.60;;;;;;5082479;28;20024;-77
2022/06/16 07:12:14;;;;;;;26.00;17.77;;;538.00;2329.60;;;;;;5071491;28;20070;-77
2022/06/16 07:14:41;;;;;;;11.52;7.05;;;538.00;2355.20;;;;;;5081880;28;20035;-79
2022/06/16 07:17:08;;;;;;;17.42;8.57;;;538.10;2252.80;;;;;;5072219;28;20017;-76
2022/06/16 07:19:35;;;;;;;20.13;13.15;;;538.20;2304.00;;;;;;5075249;28;20045;-79
2022/06/16 07:22:02;;;;;;;13.73;9.65;;;538.30;2252.80;;;;;;5089380;28;20024;-76
2022/06/16 07:24:27;;;;;;;12.93;8.25;;;538.40;2252.80;;;;;;5072148;28;20107;-76
2022/06/16 07:26:53;;;;;;;11.23;8.05;;;538.50;2252.80;;;;;;5071444;28;20146;-75
2022/06/16 07:29:19;;;;;;;15.48;11.43;;;538.50;2227.20;;;;;;5085893;28;20126;-76
2022/06/16 07:31:45;;;;;;;17.23;11.57;;;563.20;2278.40;;;;;;5070493;28;20036;-77
2022/06/16 07:34:11;;;;;;;16.15;10.48;;;563.30;2252.80;;;;;;5070620;28;20024;-76
2022/06/16 07:36:37;;;;;;;13.32;8.43;;;563.30;2252.80;;;;;;5079195;28;20130;-76
2022/06/16 07:39:05;;;;;;;16.10;8.80;;;563.40;2227.20;;;;;;5071415;28;20025;-76
2022/06/16 07:41:36;;;;;;;11.77;7.22;;;563.50;2150.40;;;;;;5088446;28;20024;-76
2022/06/16 07:44:09;;;;;;;18.33;7.65;;;563.50;2150.40;;;;;;5072332;28;20025;-75
2022/06/16 07:46:36;;;;;;;10.80;7.03;;;563.60;2124.80;;;;;;5067397;28;20027;-76
2022/06/16 07:49:04;;;;;;;29.23;20.13;;;563.70;2124.80;;;;;;5085617;28;20047;-75
2022/06/16 07:51:30;;;;;;;12.77;8.40;;;563.80;2073.60;;;;;;5081256;28;20074;-75
2022/06/16 07:53:55;;;;;;;14.15;9.65;;;563.70;2124.80;;;;;;5071044;28;20024;-77
2022/06/16 07:56:21;;;;;;;16.38;7.15;;;563.90;2150.40;;;;;;5071459;28;20021;-75
2022/06/16 07:58:48;;;;;;;16.90;12.60;;;563.90;2150.40;;;;;;5071037;28;20523;-75
2022/06/16 08:01:14;;;;;;;10.38;6.30;;;564.00;2124.80;;;;;;5070090;28;20028;-75
2022/06/16 08:03:40;;;;;;;11.20;5.13;;;564.10;2099.20;;;;;;5071427;28;20020;-75
2022/06/16 08:06:11;;;;;;;12.68;5.82;;;564.10;2022.40;;;;;;5075703;28;20467;-75
2022/06/16 08:08:37;;;;;;;9.18;5.40;;;588.80;2048.00;;;;;;5078576;28;20111;-75
2022/06/16 08:11:04;;;;;;;25.05;19.30;;;588.80;1996.80;;;;;;5071052;28;20029;-76
2022/06/16 08:13:30;;;;;;;17.25;6.25;;;588.90;1945.60;;;;;;5070021;28;20040;-75
2022/06/16 08:15:56;;;;;;;17.63;9.88;;;589.10;1894.40;;;;;;5073439;28;20019;-75
2022/06/16 08:18:25;;;;;;;22.55;15.18;;;589.10;1868.80;;;;;;5085126;28;20024;-75
2022/06/16 08:20:52;;;;;;;22.42;6.65;;;589.20;1920.00;;;;;;5089133;28;20378;-74
2022/06/16 08:23:18;;;;;;;7.82;4.85;;;589.20;1920.00;;;;;;5075225;28;20097;-75
2022/06/16 08:25:45;;;;;;;15.60;10.82;;;589.20;1920.00;;;;;;5073711;28;20444;-76
2022/06/16 08:28:14;;;;;;;16.27;9.63;;;;;;;;;;5079432;28;20040;-75
2022/06/16 08:30:44;;;;;;;11.50;5.75;;;589.70;1868.80;;;;;;5082713;28;20021;-75
2022/06/16 08:33:13;;;;;;;14.07;6.18;;;589.50;1868.80;;;;;;5074665;28;20048;-75
2022/06/16 08:35:43;;;;;;;12.55;6.75;;;589.40;1868.80;;;;;;5076622;28;20080;-77
2022/06/16 08:38:09;;;;;;;21.88;15.23;;;589.30;1868.80;;;;;;5079770;28;20066;-76
2022/06/16 08:40:40;;;;;;;9.48;6.10;;;589.50;1945.60;;;;;;5077052;28;20025;-75
2022/06/16 08:43:12;;;;;;;11.60;5.50;;;589.50;1868.80;;;;;;5087363;28;20090;-75
2022/06/16 08:45:48;;;;;;;10.63;8.88;;;589.70;1868.80;;;;;;5073619;28;20051;-75
2022/06/16 08:48:26;;;;;;;15.80;9.13;;;614.40;1868.80;;;;;;5088497;28;20081;-75
2022/06/16 08:50:52;;;;;;;43.42;38.85;;;;;;;;;;5074429;28;20491;-76
2022/06/16 08:53:21;;;;;;;24.95;18.95;;;;;;;;;;5074057;28;20396;-75
2022/06/16 08:55:47;;;;;;;10.13;6.82;;;;;;;;;;5074259;28;20020;-76
2022/06/16 08:58:31;;;;;;;15.57;11.05;;;;;;;;;;5088321;28;20497;-75
2022/06/16 09:01:12;;;;;;;7.82;4.45;;;;;;;;;;5053294;28;20076;-75
2022/06/16 09:03:47;;;;;;;13.85;9.77;;;;;;;;;;5085176;28;20033;-77
2022/06/16 09:06:26;;;;;;;30.52;27.35;;;;;;;;;;5073159;28;20468;-76
2022/06/16 09:09:10;;;;;;;9.63;5.13;;;615.20;1433.60;;;;;;5074136;28;20024;-76
2022/06/16 09:12:10;;;;;;;14.05;3.90;;;615.20;1382.40;;;;;;5074526;28;20071;-75
2022/06/16 09:17:41;;;;;;;7.60;5.22;;;;;;;;;;5073894;28;20467;-78
2022/06/16 09:20:22;;;;;;;13.65;9.00;;;640.10;1356.80;;;;;;5073091;28;20032;-78
2022/06/16 09:23:15;;;;;;;9.10;5.30;;;640.10;1356.80;;;;;;5086512;28;20479;-76
2022/06/16 09:26:11;;;;;;;7.20;3.70;;;640.10;1331.20;;;;;;5063246;28;20021;-76
2022/06/16 09:28:44;;;;;;;11.32;5.13;;;640.10;1280.00;;;;;;5067380;28;20478;-77
2022/06/16 09:31:18;;;;;;;6.43;5.03;;;640.10;1305.60;;;;;;5094505;28;20035;-76
2022/06/16 09:33:48;;;;;;;8.88;6.82;;;640.00;1228.80;;;;;;5087331;28;20391;-76
2022/06/16 09:36:17;;;;;;;7.60;3.47;;;640.10;1228.80;;;;;;5090274;28;20036;-77
2022/06/16 09:39:22;;;;;;;11.60;7.68;;;640.20;1203.20;;;;;;5094078;28;20174;-76
2022/06/16 09:45:01;;;;;;;10.05;4.90;;;640.30;1126.40;;;;;;5051313;28;20035;-76
2022/06/16 09:47:50;;;;;;;5.78;3.97;;;640.30;1177.60;;;;;;5079119;28;20044;-77
2022/06/16 09:50:29;;;;;;;10.60;3.65;;;640.40;1254.40;;;;;;5081041;28;20153;-77
2022/06/16 09:53:02;;;;;;;6.65;3.78;;;640.60;1228.80;;;;;;5074006;28;20394;-76
2022/06/16 09:55:54;;;;;;;;;;;640.60;1203.20;;;;;;5094398;28;20045;-76
2022/06/16 09:58:34;;;;;;;8.65;5.15;;;640.60;1177.60;;;;;;5054851;28;19904;-77
2022/06/16 10:01:06;;;;;;;8.57;4.25;;;640.50;1100.80;;;;;;5079610;28;20039;-77
2022/06/16 10:03:53;;;;;;;6.30;3.47;;;640.60;1177.60;;;;;;5091238;28;20054;-77
2022/06/16 10:06:22;;;;;;;6.28;3.80;;;640.60;1177.60;;;;;;5087434;28;20024;-77
2022/06/16 10:08:58;;;;;;;11.82;3.70;;;;;;;;;;5078899;28;20032;-77
2022/06/16 10:11:30;;;;;;;11.63;3.92;;;;;;;;;;5093153;28;20066;-77
2022/06/16 10:14:18;;;;;;;8.70;4.22;;;;;;;;;;5076116;28;20031;-77
2022/06/16 10:16:55;;;;;;;10.48;5.30;;;;;;;;;;5077833;28;20128;-77
2022/06/16 10:19:23;;;;;;;10.23;3.30;;;;;;;;;;5076784;28;20046;-78
2022/06/16 10:21:49;;;;;;;12.68;4.25;;;;;;;;;;5071577;28;20031;-76
2022/06/16 10:24:17;;;;;;;8.27;3.47;;;;;;;;;;5071848;28;20020;-77
2022/06/16 10:26:43;;;;;;;13.35;4.93;;;;;;;;;;5079982;28;20020;-78
2022/06/16 10:29:13;;;;;;;9.38;3.70;;;;;;;;;;5076296;28;20036;-78
2022/06/16 10:31:45;;;;;;;16.30;5.60;;;;;;;;;;5083926;28;20016;-77
2022/06/16 10:34:19;;;;;;;8.68;4.25;;;;;;;;;;5074493;28;20089;-76
2022/06/16 10:36:51;;;;;;;11.55;3.90;;;;;;;;;;5078749;28;20048;-76
2022/06/16 10:39:20;;;;;;;7.32;3.88;;;;;;;;;;5071281;28;20024;-77
2022/06/16 10:42:05;;;;;;;10.55;4.47;;;;;;;;;;5079821;28;20016;-78
2022/06/16 10:44:32;;;;;;;9.50;5.20;;;;;;;;;;5072626;28;20025;-76
2022/06/16 10:47:00;;;;;;;7.85;3.38;;;;;;;;;;5068699;28;20098;-76
2022/06/16 10:49:31;;;;;;;14.20;4.95;;;;;;;;;;5070746;28;20500;-77
2022/06/16 10:52:05;;;;;;;8.98;3.05;;;;;;;;;;5074387;28;20060;-76
2022/06/16 10:54:33;;;;;;;12.15;4.22;;;;;;;;;;5072195;28;20021;-78
2022/06/16 10:57:05;;;;;;;8.95;3.75;;;;;;;;;;5092887;28;20020;-77
2022/06/16 10:59:36;;;;;;;10.48;3.88;;;;;;;;;;5079165;28;20465;-76
2022/06/16 11:02:13;;;;;;;8.60;3.70;;;;;;;;;;5064747;28;20028;-77
2022/06/16 11:04:43;;;;;;;4.50;3.00;;;;;;;;;;5078133;28;20475;-76
2022/06/16 11:07:12;;;;;;;6.57;3.35;;;;;;;;;;5058395;28;20020;-77
2022/06/16 11:09:38;;;;;;;7.80;3.97;;;;;;;;;;5070847;28;20039;-76
2022/06/16 11:12:04;;;;;;;8.38;3.35;;;;;;;;;;5076544;28;20031;-76
2022/06/16 11:14:33;;;;;;;7.70;4.28;;;;;;;;;;5081368;28;20020;-75
2022/06/16 11:16:59;;;;;;;7.85;2.95;;;;;;;;;;5079906;28;20040;-75
2022/06/16 11:19:28;;;;;;;9.48;3.90;;;;;;;;;;5072781;28;20024;-79
2022/06/16 11:21:55;;;;;;;4.88;2.85;;;;;;;;;;5072340;28;20017;-77
2022/06/16 11:24:23;;;;;;;11.50;5.32;;;;;;;;;;5071553;28;20020;-76
2022/06/16 11:26:52;;;;;;;10.48;4.78;;;;;;;;;;5077776;28;20077;-76
2022/06/16 11:29:18;;;;;;;13.52;4.07;;;;;;;;;;5078007;28;20054;-76
2022/06/16 11:31:51;;;;;;;9.02;4.25;;;;;;;;;;5071670;28;20088;-76
2022/06/16 11:34:20;;;;;;;9.50;3.88;;;;;;;;;;5068688;28;20009;-78
2022/06/16 11:36:51;;;;;;;10.25;4.68;;;;;;;;;;5079099;28;20506;-78
2022/06/16 11:39:36;;;;;;;10.48;4.25;;;;;;;;;;5085157;28;20020;-77
2022/06/16 11:42:03;;;;;;;18.17;10.15;;;;;;;;;;5086670;28;20043;-76
2022/06/16 11:44:50;;;;;;;7.57;4.38;;;;;;;;;;5082217;28;20024;-76
2022/06/16 11:47:34;;;;;;;6.00;4.13;;;;;;;;;;5071755;28;20013;-78
2022/06/16 11:50:05;;;;;;;9.27;4.15;;;;;;;;;;5080072;28;20065;-75
2022/06/16 11:52:50;;;;;;;7.75;3.55;;;;;;;;;;5070581;28;20048;-76
2022/06/16 11:55:18;;;;;;;10.10;7.43;;;;;;;;;;5065180;28;20024;-76
2022/06/16 11:58:03;;;;;;;13.05;9.25;;;;;;;;;;5072287;28;20111;-77
2022/06/16 12:00:37;;;;;;;14.48;10.85;;;;;;;;;;5074679;28;20395;-77
2022/06/16 12:03:04;;;;;;;10.18;4.00;;;;;;;;;;5075382;28;20032;-78
2022/06/16 12:05:37;;;;;;;11.00;3.90;;;;;;;;;;5073997;28;20016;-75
2022/06/16 12:08:11;;;;;;;7.55;2.85;;;;;;;;;;5063941;28;20037;-76
2022/06/16 12:10:50;;;;;;;7.25;2.63;;;;;;;;;;5070981;28;20017;-76
2022/06/16 12:13:34;;;;;;;4.55;3.00;;;;;;;;;;5072072;28;20031;-77
2022/06/16 12:16:23;;;;;;;13.15;7.45;;;;;;;;;;5077158;28;20075;-75
2022/06/16 12:18:55;;;;;;;12.27;8.77;;;;;;;;;;5086251;28;20413;-77
2022/06/16 12:21:33;;;;;;;5.57;3.40;;;;;;;;;;5071557;28;20067;-75
2022/06/16 12:24:07;;;;;;;12.77;7.80;;;;;;;;;;5074628;28;20032;-75
2022/06/16 12:26:37;;;;;;;10.15;6.25;;;;;;;;;;5079027;28;20455;-76
2022/06/16 12:29:25;;;;;;;9.30;5.07;;;;;;;;;;5075354;28;20117;-77
2022/06/16 12:32:00;;;;;;;21.23;12.68;;;;;;;;;;5097641;28;20035;-78
2022/06/16 12:34:46;;;;;;;19.48;16.88;;;;;;;;;;5081990;28;20028;-78
2022/06/16 12:37:16;;;;;;;16.20;9.57;;;;;;;;;;5057039;28;20051;-77
2022/06/16 12:39:47;;;;;;;9.07;6.25;;;;;;;;;;5076035;28;20078;-77
2022/06/16 12:42:17;;;;;;;9.43;6.60;;;;;;;;;;5069663;28;20111;-76
2022/06/16 12:45:09;;;;;;;25.50;17.20;;;;;;;;;;5093586;28;20032;-78
2022/06/16 12:47:38;;;;;;;12.02;7.85;;;;;;;;;;5067634;28;20040;-78
2022/06/16 12:50:08;;;;;;;10.45;3.97;;;;;;;;;;5082972;28;20029;-77
2022/06/16 12:52:43;;;;;;;9.85;5.97;;;;;;;;;;5074147;28;20032;-77
2022/06/16 12:55:19;;;;;;;23.17;18.13;;;;;;;;;;5078191;28;20031;-75
2022/06/16 12:57:49;;;;;;;22.20;16.75;;;;;;;;;;5083363;28;20039;-78
2022/06/16 13:00:20;;;;;;;21.00;15.90;;;;;;;;;;5069700;28;20040;-78
2022/06/16 13:03:18;;;;;;;29.77;19.13;;;;;;;;;;5057134;28;20384;-77
2022/06/16 13:05:45;;;;;;;7.80;5.60;;;;;;;;;;5051813;28;20403;-77
2022/06/16 13:08:12;;;;;;;9.13;4.18;;;;;;;;;;5088307;28;20059;-77
2022/06/16 13:10:39;;;;;;;8.95;3.45;;;;;;;;;;5074170;28;20025;-75
2022/06/16 13:13:07;;;;;;;8.68;5.25;;;;;;;;;;5083066;28;20012;-75
2022/06/16 13:15:37;;;;;;;6.85;3.92;;;;;;;;;;5087368;28;20028;-76
2022/06/16 13:18:19;;;;;;;8.70;4.95;;;;;;;;;;5080162;28;20020;-78
2022/06/16 13:20:46;;;;;;;15.67;13.90;;;;;;;;;;5089779;28;20029;-78
2022/06/16 13:23:17;;;;;;;5.53;3.85;;;;;;;;;;5074862;28;20043;-76
2022/06/16 13:25:55;;;;;;;8.60;4.55;;;947.20;691.20;;;;;;5070593;28;20075;-78
2022/06/16 13:28:23;;;;;;;7.07;5.43;;;922.10;691.20;;;;;;5072878;28;20569;-77
2022/06/16 13:31:09;;;;;;;20.85;16.52;;;922.20;691.20;;;;;;5077849;28;20575;-77